Time;durP1;ratioP1;P1;durP2;ratioP2;P2;SDS_P1;SDS_P2;PMS_P1;PMS_P2;Temp;Humidity;BMP_temperature;BMP_pressure;BME280_temperature;BME280_humidity;BME280_pressure;Samples;Min_cycle;Max_cycle;Signal;HPM_P1;HPM_P2
2023/04/17 00:00:10;;;;;;;;;;;;;;;15.08;52.82;99581.97;4407162;32;32332;-85
2023/04/17 00:02:39;;;;;;;;;;;;;;;15.15;52.78;99582.44;4431714;32;34092;-85
2023/04/17 00:05:08;;;;;;;;;;;;;;;14.97;53.47;99587.13;4432882;32;34255;-85
2023/04/17 00:07:40;;;;;;;;;;;;;;;15.05;53.09;99587.50;4430303;32;32889;-85
2023/04/17 00:10:08;;;;;;;;;;;;;;;15.18;52.54;99589.34;4431193;32;33310;-85
2023/04/17 00:12:35;;;;;;;;;;;;;;;15.21;52.74;99578.50;4436011;32;34225;-85
2023/04/17 00:15:03;;;;;;;;;;;;;;;15.28;52.27;99579.78;4431142;32;34796;-85
2023/04/17 00:17:31;;;;;;;;;;;;;;;15.45;52.02;99576.84;4419402;32;33148;-85
2023/04/17 00:19:59;;;;;;;;;;;;;;;15.07;52.74;99576.75;4432517;32;33610;-85
2023/04/17 00:22:27;;;;;;;;;;;;;;;15.13;52.79;99581.66;4428799;32;33365;-84
2023/04/17 00:24:54;;;;;;;;;;;;;;;15.09;52.69;99577.50;4430649;32;34214;-84
2023/04/17 00:27:22;;;;;;;;;;;;;;;15.20;52.76;99568.81;4431079;32;34175;-85
2023/04/17 00:29:50;;;;;;;;;;;;;;;15.09;53.21;99564.19;4428867;32;32955;-85
2023/04/17 00:32:17;;;;;;;;;;;;;;;15.01;53.33;99571.84;4429987;32;34561;-84
2023/04/17 00:34:45;;;;;;;;;;;;;;;14.95;53.82;99577.53;4431583;32;33872;-86
2023/04/17 00:37:12;;;;;;;;;;;;;;;14.89;53.95;99573.47;4420661;32;32794;-86
2023/04/17 00:39:40;;;;;;;;;;;;;;;14.52;55.25;99575.00;4432456;32;33433;-86
2023/04/17 00:42:07;;;;;;;;;;;;;;;15.05;53.34;99568.88;4426526;32;32955;-86
2023/04/17 00:44:35;;;;;;;;;;;;;;;14.84;53.81;99571.12;4427566;32;33427;-86
2023/04/17 00:47:02;;;;;;;;;;;;;;;14.73;54.40;99575.44;4425790;32;33825;-86
2023/04/17 00:49:30;;;;;;;;;;;;;;;14.82;54.28;99566.87;4420988;32;32100;-86
2023/04/17 00:51:59;;;;;;;;;;;;;;;14.76;54.39;99569.91;4428391;32;34374;-86
2023/04/17 00:54:28;;;;;;;;;;;;;;;14.75;54.41;99565.53;4403488;32;34086;-86
2023/04/17 00:56:55;;;;;;;;;;;;;;;14.85;54.04;99567.50;4416549;32;33372;-87
2023/04/17 00:59:25;;;;;;;;;;;;;;;14.97;53.89;99567.69;4417213;32;32625;-87
2023/04/17 01:01:53;;;;;;;;;;;;;;;14.81;54.04;99570.47;4413740;32;33325;-87
2023/04/17 01:04:21;;;;;;;;;;;;;;;14.68;54.61;99565.09;4429809;32;33320;-86
2023/04/17 01:06:48;;;;;;;;;;;;;;;14.79;54.47;99567.06;4419218;32;32891;-86
2023/04/17 01:09:16;;;;;;;;;;;;;;;14.66;55.07;99560.81;4431672;32;33172;-86
2023/04/17 01:11:44;;;;;;;;;;;;;;;14.66;55.00;99563.47;4433234;32;34472;-86
2023/04/17 01:14:13;;;;;;;;;;;;;;;14.69;54.91;99565.94;4433520;32;33854;-86
2023/04/17 01:16:43;;;;;;;;;;;;;;;14.27;56.38;99575.66;4431771;32;33347;-86
2023/04/17 01:19:11;;;;;;;;;;;;;;;14.50;55.66;99567.13;4443623;32;32847;-86
2023/04/17 01:21:39;;;;;;;;;;;;;;;14.48;55.79;99566.37;4419717;32;33211;-87
2023/04/17 01:24:08;;;;;;;;;;;;;;;14.56;55.50;99566.72;4426861;32;34104;-86
2023/04/17 01:26:35;;;;;;;;;;;;;;;14.68;55.50;99558.94;4433552;32;34699;-86
2023/04/17 01:29:04;;;;;;;;;;;;;;;14.60;55.78;99560.28;4434267;32;33854;-86
2023/04/17 01:31:32;;;;;;;;;;;;;;;14.44;56.45;99556.88;4432181;32;33896;-86
2023/04/17 01:34:00;;;;;;;;;;;;;;;14.63;55.71;99555.72;4419713;32;34035;-85
2023/04/17 01:36:27;;;;;;;;;;;;;;;14.87;54.69;99554.13;4430809;32;34195;-85
2023/04/17 01:38:55;;;;;;;;;;;;;;;14.79;54.77;99553.78;4430191;32;32666;-84
2023/04/17 01:41:23;;;;;;;;;;;;;;;14.68;55.17;99549.16;4417596;32;33084;-85
2023/04/17 01:43:52;;;;;;;;;;;;;;;14.53;55.59;99553.66;4430619;32;34107;-85
2023/04/17 01:46:20;;;;;;;;;;;;;;;14.42;56.00;99553.44;4432619;32;35375;-85
2023/04/17 01:48:50;;;;;;;;;;;;;;;14.53;55.71;99556.31;4430020;32;33425;-85
2023/04/17 01:51:19;;;;;;;;;;;;;;;14.42;56.13;99558.75;4420096;32;33701;-85
2023/04/17 01:53:48;;;;;;;;;;;;;;;14.39;56.13;99558.13;4428809;32;34440;-85
2023/04/17 01:56:17;;;;;;;;;;;;;;;14.54;55.87;99557.16;4417162;32;32868;-85
2023/04/17 01:58:45;;;;;;;;;;;;;;;14.41;56.18;99551.72;4425352;32;32516;-85
2023/04/17 02:01:12;;;;;;;;;;;;;;;14.62;55.47;99560.16;4432132;32;34137;-85
2023/04/17 02:03:41;;;;;;;;;;;;;;;14.39;56.31;99550.13;4431617;32;34736;-85
2023/04/17 02:06:09;;;;;;;;;;;;;;;14.46;56.33;99544.31;4424697;32;34127;-86
2023/04/17 02:08:37;;;;;;;;;;;;;;;14.51;56.15;99552.88;4425010;32;31668;-86
2023/04/17 02:11:07;;;;;;;;;;;;;;;14.32;56.61;99552.31;4431341;32;33482;-85
2023/04/17 02:13:36;;;;;;;;;;;;;;;14.30;57.03;99555.06;4430318;32;35049;-85
2023/04/17 02:16:04;;;;;;;;;;;;;;;14.38;56.83;99554.56;4431618;32;34080;-86
2023/04/17 02:18:33;;;;;;;;;;;;;;;14.35;56.69;99552.97;4434341;32;34233;-86
2023/04/17 02:21:02;;;;;;;;;;;;;;;14.68;55.65;99550.97;4431359;32;32693;-85
2023/04/17 02:23:29;;;;;;;;;;;;;;;14.48;56.20;99555.75;4430370;32;33893;-84
2023/04/17 02:25:57;;;;;;;;;;;;;;;14.56;56.07;99553.44;4427756;32;33431;-85
2023/04/17 02:28:25;;;;;;;;;;;;;;;14.41;55.86;99549.06;4417403;32;32770;-85
2023/04/17 02:30:53;;;;;;;;;;;;;;;14.72;54.96;99549.81;4417610;32;32984;-87
2023/04/17 02:33:21;;;;;;;;;;;;;;;14.59;55.30;99547.94;4425515;32;34731;-86
2023/04/17 02:35:49;;;;;;;;;;;;;;;14.73;54.47;99543.53;4422071;32;33318;-87
2023/04/17 02:38:18;;;;;;;;;;;;;;;14.73;54.26;99546.22;4406030;32;33116;-87
2023/04/17 02:40:46;;;;;;;;;;;;;;;14.45;54.89;99542.63;4419496;32;33157;-90
2023/04/17 02:43:41;;;;;;;;;;;;;;;14.40;55.56;99543.87;4409130;32;33205;-91
2023/04/17 02:46:32;;;;;;;;;;;;;;;14.76;54.21;99532.69;4410006;32;32980;-90
2023/04/17 02:49:24;;;;;;;;;;;;;;;14.81;54.08;99541.22;4402115;32;32175;-92
2023/04/17 02:52:16;;;;;;;;;;;;;;;14.56;55.47;99534.00;4402619;32;32108;-91
2023/04/17 02:55:02;;;;;;;;;;;;;;;14.65;54.71;99538.72;4432277;32;33040;-89
2023/04/17 03:01:45;;;;;;;;;;;;;;;14.88;53.80;99537.22;4411840;32;34158;-89
2023/04/17 03:04:37;;;;;;;;;;;;;;;14.72;54.04;99536.53;4406812;32;34627;-86
2023/04/17 03:07:09;;;;;;;;;;;;;;;14.67;54.55;99546.56;4408079;32;33297;-87
2023/04/17 03:09:39;;;;;;;;;;;;;;;14.78;54.07;99541.44;4408066;32;33059;-87
2023/04/17 03:12:06;;;;;;;;;;;;;;;14.71;54.50;99545.44;4407872;32;32107;-88
2023/04/17 03:14:35;;;;;;;;;;;;;;;14.53;55.77;99556.31;4408163;32;33206;-88
2023/04/17 03:17:04;;;;;;;;;;;;;;;14.19;56.95;99546.91;4408332;32;33433;-88
2023/04/17 03:19:31;;;;;;;;;;;;;;;14.43;56.34;99549.84;4407830;32;33043;-88
2023/04/17 03:22:00;;;;;;;;;;;;;;;14.05;57.30;99553.09;4408053;32;32167;-88
2023/04/17 03:24:30;;;;;;;;;;;;;;;14.49;55.56;99549.47;4408078;32;33272;-87
2023/04/17 03:26:58;;;;;;;;;;;;;;;14.11;56.98;99548.38;4408085;32;33155;-87
2023/04/17 03:29:27;;;;;;;;;;;;;;;14.29;56.82;99549.84;4407983;32;33248;-88
2023/04/17 03:31:55;;;;;;;;;;;;;;;14.26;56.91;99558.03;4407836;32;31852;-88
2023/04/17 03:34:30;;;;;;;;;;;;;;;14.00;57.94;99551.66;4408871;32;33365;-89
2023/04/17 03:37:01;;;;;;;;;;;;;;;14.09;56.95;99541.31;4396810;32;34177;-89
2023/04/17 03:40:02;;;;;;;;;;;;;;;14.21;55.50;99544.19;4395420;32;32573;-90
2023/04/17 03:42:54;;;;;;;;;;;;;;;14.25;55.86;99556.31;4417434;32;33268;-90
2023/04/17 03:45:34;;;;;;;;;;;;;;;14.18;56.77;99561.16;4397069;32;32870;-87
2023/04/17 03:48:04;;;;;;;;;;;;;;;14.31;53.84;99555.94;4410129;32;34255;-87
2023/04/17 03:50:32;;;;;;;;;;;;;;;14.41;53.11;99559.69;4410131;32;34813;-87
2023/04/17 03:53:00;;;;;;;;;;;;;;;14.77;51.62;99558.34;4397037;32;33742;-88
2023/04/17 03:55:30;;;;;;;;;;;;;;;14.71;51.93;99556.06;4385487;32;33303;-87
2023/04/17 03:57:58;;;;;;;;;;;;;;;14.62;52.58;99561.97;4384891;32;32981;-87
2023/04/17 04:00:27;;;;;;;;;;;;;;;14.80;52.17;99558.97;4384084;32;32905;-89
2023/04/17 04:02:56;;;;;;;;;;;;;;;14.59;52.04;99561.22;4385634;32;32423;-90
2023/04/17 04:05:43;;;;;;;;;;;;;;;14.94;50.98;99559.87;4388065;32;33264;-90
2023/04/17 04:08:31;;;;;;;;;;;;;;;15.20;50.04;99563.50;4403214;32;33450;-91
2023/04/17 04:11:14;;;;;;;;;;;;;;;15.16;50.61;99567.31;4399795;32;32685;-87
2023/04/17 04:13:45;;;;;;;;;;;;;;;15.34;49.15;99563.44;4397523;32;32355;-89
2023/04/17 04:16:15;;;;;;;;;;;;;;;15.25;49.76;99566.72;4396299;32;33303;-88
2023/04/17 04:18:44;;;;;;;;;;;;;;;15.17;50.22;99569.03;4411535;32;33350;-88
2023/04/17 04:21:14;;;;;;;;;;;;;;;15.36;49.95;99567.69;4384456;32;34392;-89
2023/04/17 04:23:44;;;;;;;;;;;;;;;15.41;50.12;99570.03;4388552;32;32516;-88
2023/04/17 04:26:15;;;;;;;;;;;;;;;15.32;50.53;99581.28;4411623;32;33257;-88
2023/04/17 04:28:46;;;;;;;;;;;;;;;14.94;52.74;99570.53;4398857;32;33833;-89
2023/04/17 04:31:17;;;;;;;;;;;;;;;15.05;51.86;99574.19;4408562;32;32584;-89
2023/04/17 04:33:46;;;;;;;;;;;;;;;14.99;52.54;99577.25;4399484;32;33333;-89
2023/04/17 04:36:19;;;;;;;;;;;;;;;14.93;53.10;99585.62;4397580;32;32980;-89
2023/04/17 04:38:49;;;;;;;;;;;;;;;14.72;54.12;99592.34;4397161;32;33919;-88
2023/04/17 04:41:24;;;;;;;;;;;;;;;14.90;52.91;99596.44;4386924;32;32577;-88
2023/04/17 04:43:53;;;;;;;;;;;;;;;14.63;54.76;99590.28;4404774;32;32358;-88
2023/04/17 04:46:21;;;;;;;;;;;;;;;14.81;53.84;99599.69;4395040;32;32266;-89
2023/04/17 04:48:50;;;;;;;;;;;;;;;14.71;54.53;99602.09;4411133;32;33581;-88
2023/04/17 04:51:18;;;;;;;;;;;;;;;14.78;54.13;99603.41;4398626;32;33527;-88
2023/04/17 04:53:48;;;;;;;;;;;;;;;14.70;55.01;99605.72;4383175;32;32220;-88
2023/04/17 04:56:20;;;;;;;;;;;;;;;14.80;54.00;99600.66;4400269;32;33337;-88
2023/04/17 04:58:50;;;;;;;;;;;;;;;14.68;53.80;99612.09;4410023;32;33888;-88
2023/04/17 05:01:18;;;;;;;;;;;;;;;14.72;54.30;99619.78;4398440;32;32864;-88
2023/04/17 05:03:49;;;;;;;;;;;;;;;14.91;53.85;99618.56;4386655;32;32647;-90
2023/04/17 05:06:21;;;;;;;;;;;;;;;14.57;55.00;99616.28;4399188;32;32955;-89
2023/04/17 05:09:02;;;;;;;;;;;;;;;14.70;55.17;99620.81;4397769;32;33060;-88
2023/04/17 05:11:32;;;;;;;;;;;;;;;14.85;54.61;99619.81;4417871;32;33890;-88
2023/04/17 05:14:00;;;;;;;;;;;;;;;14.69;54.48;99613.78;4406383;32;32871;-87
2023/04/17 05:16:28;;;;;;;;;;;;;;;14.87;53.98;99617.94;4393881;32;33430;-87
2023/04/17 05:18:56;;;;;;;;;;;;;;;14.85;54.33;99610.03;4405618;32;34286;-88
2023/04/17 05:21:26;;;;;;;;;;;;;;;14.96;54.06;99614.69;4394418;32;34473;-89
2023/04/17 05:23:59;;;;;;;;;;;;;;;14.98;54.16;99609.25;4405695;32;33488;-87
2023/04/17 05:26:28;;;;;;;;;;;;;;;14.98;54.55;99620.75;4386446;32;33010;-88
2023/04/17 05:29:03;;;;;;;;;;;;;;;15.13;53.92;99616.22;4399589;32;33184;-88
2023/04/17 05:31:35;;;;;;;;;;;;;;;14.97;53.94;99616.38;4390616;32;33036;-87
2023/04/17 05:34:07;;;;;;;;;;;;;;;14.91;54.07;99615.91;4408385;32;32718;-89
2023/04/17 05:36:38;;;;;;;;;;;;;;;15.10;54.18;99622.63;4415557;32;33895;-89
2023/04/17 05:39:17;;;;;;;;;;;;;;;14.98;54.62;99626.06;4384203;32;33895;-89
2023/04/17 05:41:50;;;;;;;;;;;;;;;14.99;54.66;99616.28;4382574;32;33302;-89
2023/04/17 05:44:18;;;;;;;;;;;;;;;15.16;54.14;99617.84;4404743;32;33400;-89
2023/04/17 05:46:51;;;;;;;;;;;;;;;15.29;54.16;99624.94;4407988;32;32836;-89
2023/04/17 05:49:23;;;;;;;;;;;;;;;15.27;55.23;99620.66;4419388;32;34242;-89
2023/04/17 05:51:52;;;;;;;;;;;;;;;15.39;55.10;99625.16;4380798;32;33049;-89
2023/04/17 05:54:29;;;;;;;;;;;;;;;15.38;55.03;99623.44;4404515;32;32298;-89
2023/04/17 05:56:59;;;;;;;;;;;;;;;15.42;55.53;99622.28;4395255;32;34604;-89
2023/04/17 05:59:28;;;;;;;;;;;;;;;15.46;55.15;99626.44;4403624;32;33232;-89
2023/04/17 06:01:58;;;;;;;;;;;;;;;15.55;55.49;99625.84;4383991;32;33020;-89
2023/04/17 06:04:52;;;;;;;;;;;;;;;15.55;54.46;99625.84;4404553;32;32213;-89
2023/04/17 06:07:26;;;;;;;;;;;;;;;15.87;52.92;99625.50;4396965;32;32601;-89
2023/04/17 06:09:56;;;;;;;;;;;;;;;15.75;50.91;99626.34;4398699;32;33470;-89
2023/04/17 06:12:24;;;;;;;;;;;;;;;16.17;49.17;99632.34;4396802;32;33126;-88
2023/04/17 06:14:53;;;;;;;;;;;;;;;16.27;49.57;99620.09;4408738;32;31984;-88
2023/04/17 06:17:25;;;;;;;;;;;;;;;16.77;49.91;99621.88;4401689;32;34243;-88
2023/04/17 06:19:56;;;;;;;;;;;;;;;16.57;50.91;99622.41;4394654;32;33372;-88
2023/04/17 06:22:24;;;;;;;;;;;;;;;16.79;48.81;99627.91;4397846;32;34254;-88
2023/04/17 06:27:28;;;;;;;;;;;;;;;16.87;49.11;99628.22;4398124;32;32826;-88
2023/04/17 06:29:55;;;;;;;;;;;;;;;16.95;47.72;99634.81;4405997;32;32758;-89
2023/04/17 06:32:24;;;;;;;;;;;;;;;17.17;46.73;99634.09;4422769;32;34372;-88
2023/04/17 06:35:02;;;;;;;;;;;;;;;17.26;46.82;99636.94;4411397;32;34350;-88
2023/04/17 06:37:33;;;;;;;;;;;;;;;17.21;46.55;99635.59;4422346;32;33806;-88
2023/04/17 06:40:01;;;;;;;;;;;;;;;17.13;46.29;99634.31;4409916;32;34919;-88
2023/04/17 06:42:32;;;;;;;;;;;;;;;17.41;42.84;99641.13;4385191;32;33024;-88
2023/04/17 06:45:01;;;;;;;;;;;;;;;17.53;42.13;99646.53;4389126;32;32157;-88
2023/04/17 06:47:30;;;;;;;;;;;;;;;17.51;42.88;99643.13;4409768;32;32925;-88
2023/04/17 06:49:58;;;;;;;;;;;;;;;17.48;42.92;99644.22;4407176;32;32817;-88
2023/04/17 06:52:28;;;;;;;;;;;;;;;17.56;42.91;99649.81;4385247;32;33397;-88
2023/04/17 06:55:06;;;;;;;;;;;;;;;17.76;43.53;99650.19;4401518;32;34049;-88
2023/04/17 06:57:38;;;;;;;;;;;;;;;17.79;40.38;99657.94;4404006;32;33501;-88
2023/04/17 07:00:09;;;;;;;;;;;;;;;17.58;41.67;99655.06;4396019;32;33167;-88
2023/04/17 07:02:41;;;;;;;;;;;;;;;17.53;41.32;99655.41;4397994;32;33326;-88
2023/04/17 07:05:16;;;;;;;;;;;;;;;17.42;42.08;99666.00;4408832;32;34897;-88
2023/04/17 07:07:46;;;;;;;;;;;;;;;17.55;42.26;99664.13;4383389;32;33222;-88
2023/04/17 07:10:18;;;;;;;;;;;;;;;17.69;42.25;99660.44;4402725;32;33623;-88
2023/04/17 07:12:46;;;;;;;;;;;;;;;17.96;40.26;99665.53;4394287;32;33050;-89
2023/04/17 07:15:15;;;;;;;;;;;;;;;17.85;41.16;99663.69;4393523;32;33312;-88
2023/04/17 07:17:49;;;;;;;;;;;;;;;17.90;40.68;99660.69;4406595;32;33397;-88
2023/04/17 07:20:17;;;;;;;;;;;;;;;17.84;42.77;99656.63;4392254;32;33019;-89
2023/04/17 07:23:08;;;;;;;;;;;;;;;18.27;40.07;99660.50;4408016;32;34062;-89
2023/04/17 07:25:37;;;;;;;;;;;;;;;18.07;41.36;99652.19;4394546;32;32393;-88
2023/04/17 07:28:06;;;;;;;;;;;;;;;17.75;41.23;99661.81;4418361;32;32704;-88
2023/04/17 07:30:37;;;;;;;;;;;;;;;17.83;42.58;99670.09;4418179;32;33311;-89
2023/04/17 07:33:05;;;;;;;;;;;;;;;18.31;41.35;99654.78;4418102;32;32917;-89
2023/04/17 07:35:37;;;;;;;;;;;;;;;18.25;41.05;99649.09;4418980;32;32160;-89
2023/04/17 07:38:11;;;;;;;;;;;;;;;18.40;41.57;99654.06;4405807;32;32627;-89
2023/04/17 07:40:39;;;;;;;;;;;;;;;18.32;42.18;99655.63;4419461;32;34252;-89
2023/04/17 07:43:27;;;;;;;;;;;;;;;18.47;43.08;99659.81;4403928;32;33160;-89
2023/04/17 07:45:55;;;;;;;;;;;;;;;18.23;41.67;99661.69;4394837;32;32001;-88
2023/04/17 07:48:26;;;;;;;;;;;;;;;18.82;42.06;99665.06;4418454;32;32866;-89
2023/04/17 07:51:00;;;;;;;;;;;;;;;18.12;42.00;99674.06;4419769;32;35026;-89
2023/04/17 07:53:30;;;;;;;;;;;;;;;18.39;42.71;99665.75;4417062;32;33400;-89
2023/04/17 07:55:58;;;;;;;;;;;;;;;18.33;43.24;99670.72;4408474;32;31734;-88
2023/04/17 08:02:40;;;;;;;;;;;;;;;18.99;40.36;99674.41;4423595;32;35088;-89
2023/04/17 08:05:10;;;;;;;;;;;;;;;18.85;41.53;99661.28;4409146;32;33581;-88
2023/04/17 08:07:39;;;;;;;;;;;;;;;19.10;41.38;99669.03;4399139;32;32669;-87
2023/04/17 08:10:14;;;;;;;;;;;;;;;18.93;41.33;99666.84;4411371;32;33605;-88
2023/04/17 08:12:48;;;;;;;;;;;;;;;18.98;42.50;99664.66;4424261;32;35056;-88
2023/04/17 08:15:19;;;;;;;;;;;;;;;19.49;39.34;99663.22;4396185;32;32853;-87
2023/04/17 08:17:51;;;;;;;;;;;;;;;19.24;40.54;99665.22;4406716;32;32684;-87
2023/04/17 08:20:20;;;;;;;;;;;;;;;18.92;40.98;99663.34;4386434;32;33175;-88
2023/04/17 08:22:56;;;;;;;;;;;;;;;19.30;40.04;99669.22;4391442;32;33175;-89
2023/04/17 08:25:24;;;;;;;;;;;;;;;19.55;40.48;99670.72;4396230;32;32802;-88
2023/04/17 08:27:52;;;;;;;;;;;;;;;19.52;40.17;99666.50;4398928;32;32090;-88
2023/04/17 08:30:27;;;;;;;;;;;;;;;19.49;40.58;99669.41;4397163;32;33972;-87
2023/04/17 08:35:38;;;;;;;;;;;;;;;19.83;40.15;99663.94;4409411;32;34248;-90
2023/04/17 08:38:15;;;;;;;;;;;;;;;19.57;41.19;99666.13;4397526;32;32377;-88
2023/04/17 08:40:45;;;;;;;;;;;;;;;19.90;41.70;99651.75;4421566;32;33351;-89
2023/04/17 08:43:15;;;;;;;;;;;;;;;20.22;41.31;99657.00;4421864;32;33755;-88
2023/04/17 08:45:55;;;;;;;;;;;;;;;20.56;39.19;99649.63;4409024;32;33863;-87
2023/04/17 08:48:23;;;;;;;;;;;;;;;20.37;39.13;99661.06;4397279;32;32303;-87
2023/04/17 08:50:52;;;;;;;;;;;;;;;20.35;38.75;99654.97;4421490;32;33788;-87
2023/04/17 08:53:21;;;;;;;;;;;;;;;19.84;39.94;99653.09;4408899;32;33760;-88
2023/04/17 08:55:51;;;;;;;;;;;;;;;19.60;41.13;99663.19;4409263;32;33139;-88
2023/04/17 08:58:25;;;;;;;;;;;;;;;19.34;40.85;99657.31;4396837;32;32150;-87
2023/04/17 09:05:02;;;;;;;;;;;;;;;19.84;40.54;99653.09;4410195;32;35067;-88
2023/04/17 09:07:43;;;;;;;;;;;;;;;19.88;40.89;99659.06;4408624;32;34253;-87
2023/04/17 09:10:16;;;;;;;;;;;;;;;19.33;40.81;99655.59;4414718;32;33039;-87
2023/04/17 09:13:00;;;;;;;;;;;;;;;19.72;40.74;99653.28;4384080;32;32979;-88
2023/04/17 09:20:02;;;;;;;;;;;;;;;19.64;40.70;99652.09;4410216;32;35105;-89
2023/04/17 09:22:32;;;;;;;;;;;;;;;20.41;40.38;99645.56;4408690;32;32196;-87
2023/04/17 09:25:26;;;;;;;;;;;;;;;20.87;39.44;99646.91;4400118;32;34951;-87
2023/04/17 09:28:10;;;;;;;;;;;;;;;20.99;37.88;99645.00;4411220;32;33107;-89
2023/04/17 09:30:52;;;;;;;;;;;;;;;20.59;39.81;99653.88;4395625;32;33073;-89
2023/04/17 09:33:21;;;;;;;;;;;;;;;20.32;40.85;99649.03;4411237;32;32472;-88
2023/04/17 09:35:49;;;;;;;;;;;;;;;20.31;39.62;99652.69;4422280;32;33541;-88
2023/04/17 09:38:18;;;;;;;;;;;;;;;19.73;39.95;99660.34;4420627;32;33015;-88
2023/04/17 09:40:47;;;;;;;;;;;;;;;19.56;40.74;99651.88;4398281;32;33399;-87
2023/04/17 09:43:14;;;;;;;;;;;;;;;20.10;40.65;99647.38;4409730;32;32978;-87
2023/04/17 09:45:47;;;;;;;;;;;;;;;19.76;40.95;99654.75;4410512;32;34132;-88
2023/04/17 09:48:16;;;;;;;;;;;;;;;20.28;41.94;99640.44;4393926;32;33559;-88
2023/04/17 09:50:44;;;;;;;;;;;;;;;20.70;39.83;99641.22;4407519;32;32492;-88
2023/04/17 09:53:15;;;;;;;;;;;;;;;20.56;40.22;99638.06;4406484;32;31986;-88
2023/04/17 09:55:46;;;;;;;;;;;;;;;20.61;40.15;99635.81;4392728;32;32325;-89
2023/04/17 09:58:18;;;;;;;;;;;;;;;20.74;39.02;99632.88;4403431;32;33099;-87
2023/04/17 10:00:47;;;;;;;;;;;;;;;20.15;39.02;99642.47;4404387;32;35011;-88
2023/04/17 10:03:17;;;;;;;;;;;;;;;20.25;38.76;99629.09;4379023;32;33272;-89
2023/04/17 10:05:45;;;;;;;;;;;;;;;20.33;37.90;99626.63;4406087;32;32271;-88
2023/04/17 10:08:17;;;;;;;;;;;;;;;20.57;38.02;99623.66;4416043;32;33892;-87
2023/04/17 10:10:51;;;;;;;;;;;;;;;20.36;38.52;99627.19;4417834;32;33354;-88
2023/04/17 10:13:23;;;;;;;;;;;;;;;20.36;38.90;99626.34;4414286;32;32621;-87
2023/04/17 10:15:51;;;;;;;;;;;;;;;20.33;37.87;99627.47;4419606;32;33225;-88
2023/04/17 10:18:21;;;;;;;;;;;;;;;19.82;40.39;99628.28;4411395;32;33108;-87
2023/04/17 10:20:52;;;;;;;;;;;;;;;20.28;37.03;99618.13;4420554;32;34104;-89
2023/04/17 10:23:25;;;;;;;;;;;;;;;19.93;38.88;99617.47;4404686;32;32116;-87
2023/04/17 10:26:13;;;;;;;;;;;;;;;19.76;38.72;99623.44;4391009;32;32350;-89
2023/04/17 10:28:51;;;;;;;;;;;;;;;20.08;39.68;99618.03;4421297;32;35956;-86
2023/04/17 10:31:22;;;;;;;;;;;;;;;20.50;38.61;99614.44;4431184;32;34223;-87
2023/04/17 10:33:51;;;;;;;;;;;;;;;20.15;39.09;99616.50;4416871;32;32883;-86
2023/04/17 10:36:39;;;;;;;;;;;;;;;19.92;38.68;99623.81;4418083;32;32932;-87
2023/04/17 10:39:18;;;;;;;;;;;;;;;20.11;38.76;99617.75;4431356;32;34296;-87
2023/04/17 10:42:06;;;;;;;;;;;;;;;20.24;37.91;99611.31;4415685;32;33037;-88
2023/04/17 10:44:38;;;;;;;;;;;;;;;20.15;39.03;99619.19;4418191;32;33914;-88
2023/04/17 10:47:09;;;;;;;;;;;;;;;19.94;39.20;99615.69;4413349;32;33272;-87
2023/04/17 10:49:51;;;;;;;;;;;;;;;20.52;38.14;99613.31;4405477;32;33454;-87
2023/04/17 10:52:32;;;;;;;;;;;;;;;20.49;37.05;99616.28;4418681;32;33051;-88
2023/04/17 10:55:23;;;;;;;;;;;;;;;20.29;38.77;99611.78;4417449;32;33698;-88
2023/04/17 10:57:51;;;;;;;;;;;;;;;20.36;38.84;99612.94;4418153;32;33958;-88
2023/04/17 11:00:28;;;;;;;;;;;;;;;19.85;40.30;99609.28;4418575;32;34376;-88
2023/04/17 11:02:57;;;;;;;;;;;;;;;19.65;40.50;99621.69;4426826;32;32805;-87
2023/04/17 11:05:34;;;;;;;;;;;;;;;20.04;39.40;99607.69;4404917;32;32470;-88
2023/04/17 11:08:02;;;;;;;;;;;;;;;20.03;38.91;99608.66;4418216;32;32729;-88
2023/04/17 11:10:35;;;;;;;;;;;;;;;19.79;39.75;99603.56;4404613;32;32944;-88
2023/04/17 11:13:10;;;;;;;;;;;;;;;20.16;40.43;99612.81;4391536;32;34201;-88
2023/04/17 11:15:46;;;;;;;;;;;;;;;20.14;40.17;99611.28;4430166;32;33014;-88
2023/04/17 11:18:18;;;;;;;;;;;;;;;20.58;38.64;99603.88;4429184;32;34322;-88
2023/04/17 11:20:48;;;;;;;;;;;;;;;20.36;38.72;99607.56;4415886;32;31952;-88
2023/04/17 11:23:18;;;;;;;;;;;;;;;19.80;39.58;99614.16;4429815;32;33970;-88
2023/04/17 11:25:54;;;;;;;;;;;;;;;20.25;38.70;99610.34;4405570;32;32553;-88
2023/04/17 11:31:04;;;;;;;;;;;;;;;20.24;39.70;99605.97;4413942;32;34056;-87
2023/04/17 11:33:35;;;;;;;;;;;;;;;19.83;39.36;99607.69;4400100;32;33485;-88
2023/04/17 11:36:05;;;;;;;;;;;;;;;19.36;40.28;99609.81;4415052;32;33435;-88
2023/04/17 11:38:44;;;;;;;;;;;;;;;19.53;39.90;99613.78;4402592;32;33384;-87
2023/04/17 11:41:13;;;;;;;;;;;;;;;19.79;39.89;99606.25;4426454;32;34300;-85
2023/04/17 11:43:47;;;;;;;;;;;;;;;19.66;39.84;99609.97;4422210;32;33213;-88
2023/04/17 11:46:20;;;;;;;;;;;;;;;20.04;38.52;99600.50;4408849;32;33427;-87
2023/04/17 11:48:49;;;;;;;;;;;;;;;19.53;39.67;99613.78;4405895;32;33374;-87
2023/04/17 11:51:18;;;;;;;;;;;;;;;19.64;39.81;99611.91;4406648;32;32772;-88
2023/04/17 11:53:54;;;;;;;;;;;;;;;20.00;39.47;99604.41;4398782;32;32958;-87
2023/04/17 11:56:27;;;;;;;;;;;;;;;20.36;38.94;99599.50;4417849;32;32104;-88
2023/04/17 11:58:57;;;;;;;;;;;;;;;20.29;38.52;99609.09;4405840;32;32805;-88
2023/04/17 12:01:33;;;;;;;;;;;;;;;19.86;39.05;99607.44;4418501;32;33829;-88
2023/04/17 12:04:18;;;;;;;;;;;;;;;20.39;38.21;99604.63;4406309;32;33894;-87
2023/04/17 12:06:46;;;;;;;;;;;;;;;20.06;39.28;99601.22;4430016;32;32185;-87
2023/04/17 12:09:20;;;;;;;;;;;;;;;20.33;38.59;99597.13;4418050;32;33624;-88
2023/04/17 12:11:48;;;;;;;;;;;;;;;20.02;39.56;99601.59;4432033;32;33377;-88
2023/04/17 12:14:23;;;;;;;;;;;;;;;20.55;39.08;99598.78;4406584;32;33528;-88
2023/04/17 12:16:59;;;;;;;;;;;;;;;20.75;38.33;99599.69;4419144;32;33865;-88
2023/04/17 12:19:28;;;;;;;;;;;;;;;20.62;38.03;99595.44;4418662;32;34240;-88
2023/04/17 12:21:58;;;;;;;;;;;;;;;20.68;37.79;99602.94;4417932;32;33850;-88
2023/04/17 12:24:27;;;;;;;;;;;;;;;20.64;37.71;99597.97;4405703;32;34064;-88
2023/04/17 12:27:02;;;;;;;;;;;;;;;20.35;38.02;99604.03;4405755;32;32073;-88
2023/04/17 12:29:30;;;;;;;;;;;;;;;20.44;38.17;99597.03;4423149;32;33029;-88
2023/04/17 12:32:15;;;;;;;;;;;;;;;20.39;38.34;99588.53;4409357;32;34058;-88
2023/04/17 12:34:50;;;;;;;;;;;;;;;20.57;38.18;99589.63;4411341;32;34954;-88
2023/04/17 12:37:19;;;;;;;;;;;;;;;20.71;38.35;99591.94;4408723;32;33914;-88
2023/04/17 12:42:32;;;;;;;;;;;;;;;20.96;38.00;99592.41;4398781;32;34845;-89
2023/04/17 12:45:21;;;;;;;;;;;;;;;21.14;36.75;99585.38;4406756;32;34922;-88
2023/04/17 12:47:52;;;;;;;;;;;;;;;21.34;37.29;99583.59;4423715;32;33435;-87
2023/04/17 12:50:21;;;;;;;;;;;;;;;20.97;37.76;99584.22;4412096;32;34974;-88
2023/04/17 12:52:51;;;;;;;;;;;;;;;21.10;36.34;99577.75;4413233;32;33101;-88
2023/04/17 12:55:25;;;;;;;;;;;;;;;20.73;37.26;99574.84;4397924;32;32667;-88
2023/04/17 12:57:54;;;;;;;;;;;;;;;21.10;36.77;99572.38;4398360;32;32524;-88
2023/04/17 13:00:29;;;;;;;;;;;;;;;21.01;36.70;99570.53;4411365;32;33227;-87
2023/04/17 13:03:08;;;;;;;;;;;;;;;21.50;35.62;99569.56;4423166;32;33595;-88
2023/04/17 13:08:19;;;;;;;;;;;;;;;21.35;35.96;99560.25;4407942;32;32103;-88
2023/04/17 13:10:47;;;;;;;;;;;;;;;20.88;37.25;99563.56;4409221;32;32849;-88
2023/04/17 13:13:17;;;;;;;;;;;;;;;20.97;36.54;99559.22;4399423;32;33331;-88
2023/04/17 13:15:46;;;;;;;;;;;;;;;21.45;36.67;99550.34;4384561;32;32834;-88
2023/04/17 13:18:18;;;;;;;;;;;;;;;21.85;34.70;99541.25;4413770;32;32592;-89
2023/04/17 13:20:52;;;;;;;;;;;;;;;21.69;35.55;99548.06;4397923;32;33069;-88
2023/04/17 13:23:21;;;;;;;;;;;;;;;21.30;36.76;99551.75;4399182;32;32917;-89
2023/04/17 13:25:57;;;;;;;;;;;;;;;21.17;37.14;99562.75;4408347;32;35502;-90
2023/04/17 13:28:27;;;;;;;;;;;;;;;21.60;35.10;99542.69;4410476;32;34204;-86
2023/04/17 13:31:02;;;;;;;;;;;;;;;21.76;35.20;99542.97;4416700;32;33112;-88
2023/04/17 13:33:44;;;;;;;;;;;;;;;21.82;35.23;99542.38;4406705;32;33914;-89
2023/04/17 13:36:18;;;;;;;;;;;;;;;21.77;35.56;99533.06;4409841;32;32724;-90
2023/04/17 13:39:04;;;;;;;;;;;;;;;21.37;36.59;99544.88;4406775;32;31689;-90
2023/04/17 13:42:04;;;;;;;;;;;;;;;21.85;36.05;99530.50;4403608;32;32652;-92